Time;durP1;ratioP1;P1;durP2;ratioP2;P2;SDS_P1;SDS_P2;PMS_P1;PMS_P2;Temp;Humidity;BMP_temperature;BMP_pressure;BME280_temperature;BME280_humidity;BME280_pressure;Samples;Min_cycle;Max_cycle;Signal;HPM_P1;HPM_P2
2022/03/28 00:00:25;;;;;;;;;;;;;;;;;;5097666;28;20262;-22
2022/03/28 00:02:51;;;;;;;;;;;;;;;;;;5097448;28;19916;-22
2022/03/28 00:05:17;;;;;;;;;;;;;;;;;;5097482;28;19912;-22
2022/03/28 00:07:43;;;;;;;;;;;;;;;;;;5097573;28;19943;-23
2022/03/28 00:10:09;;;;;;;;;;;;;;;;;;5097754;28;19908;-22
2022/03/28 00:12:37;;;;;;;;;;;;;;;;;;5096968;28;20011;-23
2022/03/28 00:15:03;;;;;;;;;;;;;;;;;;5097608;28;19969;-22
2022/03/28 00:17:31;;;;;;;;;;;;;;;;;;5097343;28;20292;-23
2022/03/28 00:19:57;;;;;;;;;;;;;;;;;;5079463;28;20271;-22
2022/03/28 00:22:23;;;;;;;;;;;;;;;;;;5079296;28;19938;-22
2022/03/28 00:24:49;;;;;;;;;;;;;;;;;;5097325;28;19916;-22
2022/03/28 00:27:15;;;;;;;;;;;;;;;;;;5097091;28;19931;-23
2022/03/28 00:29:41;;;;;;;;;;;;;;;;;;5097076;28;20424;-22
2022/03/28 00:32:07;;;;;;;;;;;;;;;;;;5097175;28;19908;-22
2022/03/28 00:34:33;;;;;;;;;;;;;;;;;;5097263;28;20367;-23
2022/03/28 00:36:59;;;;;;;;;;;;;;;;;;5096962;28;19919;-22
2022/03/28 00:39:25;;;;;;;;;;;;;;;;;;5097388;28;19912;-22
2022/03/28 00:41:51;;;;;;;;;;;;;;;;;;5096810;28;20350;-22
2022/03/28 00:44:17;;;;;;;;;;;;;;;;;;5097319;28;19920;-22
2022/03/28 00:46:43;;;;;;;;;;;;;;;;;;5096670;28;20350;-22
2022/03/28 00:49:09;;;;;;;;;;;;;;;;;;5096612;28;19982;-23
2022/03/28 00:51:35;;;;;;;;;;;;;;;;;;5078752;28;19912;-22
2022/03/28 00:54:01;;;;;;;;;;;;;;;;;;5096860;28;19948;-22
2022/03/28 00:56:27;;;;;;;;;;;;;;;;;;5096536;28;19914;-23
2022/03/28 00:58:53;;;;;;;;;;;;;;;;;;5096551;28;20320;-22
2022/03/28 01:01:19;;;;;;;;;;;;;;;;;;5096414;28;19939;-23
2022/03/28 01:03:45;;;;;;;;;;;;;;;;;;5078419;28;19912;-23
2022/03/28 01:06:11;;;;;;;;;;;;;;;;;;5096386;28;19916;-22
2022/03/28 01:08:37;;;;;;;;;;;;;;;;;;5096568;28;19969;-25
2022/03/28 01:11:04;;;;;;;;;;;;;;;;;;5096262;28;20003;-22
2022/03/28 01:13:30;;;;;;;;;;;;;;;;;;5096121;28;19997;-23
2022/03/28 01:15:56;;;;;;;;;;;;;;;;;;5096412;28;20255;-23
2022/03/28 01:18:22;;;;;;;;;;;;;;;;;;5096171;28;19912;-23
2022/03/28 01:20:48;;;;;;;;;;;;;;;;;;5096147;28;19912;-22
2022/03/28 01:23:14;;;;;;;;;;;;;;;;;;5094941;28;19916;-23
2022/03/28 01:25:40;;;;;;;;;;;;;;;;;;5096055;28;19919;-22
2022/03/28 01:28:06;;;;;;;;;;;;;;;;;;5096002;28;19920;-23
2022/03/28 01:30:32;;;;;;;;;;;;;;;;;;5096469;28;19912;-23
2022/03/28 01:32:58;;;;;;;;;;;;;;;;;;5095837;28;19908;-23
2022/03/28 01:35:24;;;;;;;;;;;;;;;;;;5095848;28;19954;-22
2022/03/28 01:37:50;;;;;;;;;;;;;;;;;;5096310;28;19912;-22
2022/03/28 01:40:16;;;;;;;;;;;;;;;;;;5096008;28;20228;-23
2022/03/28 01:42:42;;;;;;;;;;;;;;;;;;5095860;28;19922;-23
2022/03/28 01:45:08;;;;;;;;;;;;;;;;;;5095621;28;19912;-22
2022/03/28 01:47:34;;;;;;;;;;;;;;;;;;5095660;28;19912;-23
2022/03/28 01:50:00;;;;;;;;;;;;;;;;;;5095883;28;20339;-23
2022/03/28 01:52:26;;;;;;;;;;;;;;;;;;5095477;28;19918;-22
2022/03/28 01:54:52;;;;;;;;;;;;;;;;;;5095547;28;19922;-22
2022/03/28 01:57:18;;;;;;;;;;;;;;;;;;5095772;28;20339;-22
2022/03/28 01:59:44;;;;;;;;;;;;;;;;;;5095477;28;19969;-22
2022/03/28 02:02:10;;;;;;;;;;;;;;;;;;5095345;28;20224;-22
2022/03/28 02:04:36;;;;;;;;;;;;;;;;;;5095598;28;19916;-22
2022/03/28 02:07:02;;;;;;;;;;;;;;;;;;5097272;28;19928;-22
2022/03/28 02:09:28;;;;;;;;;;;;;;;;;;5095296;28;19908;-23
2022/03/28 02:11:54;;;;;;;;;;;;;;;;;;5095201;28;20273;-22
2022/03/28 02:14:20;;;;;;;;;;;;;;;;;;5095794;28;19965;-22
2022/03/28 02:16:46;;;;;;;;;;;;;;;;;;5095466;28;19952;-22
2022/03/28 02:19:12;;;;;;;;;;;;;;;;;;5095239;28;20400;-22
2022/03/28 02:21:38;;;;;;;;;;;;;;;;;;5095508;28;20228;-23
2022/03/28 02:24:04;;;;;;;;;;;;;;;;;;5094982;28;19919;-22
2022/03/28 02:26:30;;;;;;;;;;;;;;;;;;5095162;28;20366;-23
2022/03/28 02:28:56;;;;;;;;;;;;;;;;;;5077395;28;19908;-23
2022/03/28 02:31:22;;;;;;;;;;;;;;;;;;5095046;28;19916;-23
2022/03/28 02:33:48;;;;;;;;;;;;;;;;;;5095072;28;19957;-23
2022/03/28 02:36:14;;;;;;;;;;;;;;;;;;5098875;28;19912;-23
2022/03/28 02:38:40;;;;;;;;;;;;;;;;;;5099476;28;20357;-22
2022/03/28 02:41:06;;;;;;;;;;;;;;;;;;5099186;28;19912;-23
2022/03/28 02:43:32;;;;;;;;;;;;;;;;;;5098975;28;20027;-23
2022/03/28 02:45:58;;;;;;;;;;;;;;;;;;5099303;28;20391;-22
2022/03/28 02:48:24;;;;;;;;;;;;;;;;;;5099332;28;19908;-23
2022/03/28 02:50:49;;;;;;;;;;;;;;;;;;5098975;28;19912;-22
2022/03/28 02:53:16;;;;;;;;;;;;;;;;;;5098869;28;19953;-25
2022/03/28 02:55:42;;;;;;;;;;;;;;;;;;5098836;28;19920;-22
2022/03/28 02:58:08;;;;;;;;;;;;;;;;;;5098855;28;19952;-22
2022/03/28 03:00:34;;;;;;;;;;;;;;;;;;5099907;28;19978;-22
2022/03/28 03:03:00;;;;;;;;;;;;;;;;;;5098917;28;19916;-23
2022/03/28 03:05:26;;;;;;;;;;;;;;;;;;5099302;28;19916;-22
2022/03/28 03:07:52;;;;;;;;;;;;;;;;;;5098558;28;19928;-22
2022/03/28 03:10:18;;;;;;;;;;;;;;;;;;5098592;28;20419;-23
2022/03/28 03:12:44;;;;;;;;;;;;;;;;;;5098489;28;19912;-22
2022/03/28 03:15:10;;;;;;;;;;;;;;;;;;5099117;28;19912;-22
2022/03/28 03:17:36;;;;;;;;;;;;;;;;;;5080566;28;20362;-23
2022/03/28 03:20:02;;;;;;;;;;;;;;;;;;5098474;28;19970;-23
2022/03/28 03:22:28;;;;;;;;;;;;;;;;;;5098349;28;19999;-22
2022/03/28 03:24:54;;;;;;;;;;;;;;;;;;5098327;28;19912;-22
2022/03/28 03:27:20;;;;;;;;;;;;;;;;;;5098563;28;19990;-23
2022/03/28 03:29:47;;;;;;;;;;;;;;;;;;5098277;28;19908;-23
2022/03/28 03:32:13;;;;;;;;;;;;;;;;;;5098087;28;19922;-23
2022/03/28 03:34:39;;;;;;;;;;;;;;;;;;5098407;28;19912;-23
2022/03/28 03:37:06;;;;;;;;;;;;;;;;;;5098115;28;19919;-22
2022/03/28 03:39:32;;;;;;;;;;;;;;;;;;5097992;28;19927;-22
2022/03/28 03:41:58;;;;;;;;;;;;;;;;;;5098496;28;20246;-22
2022/03/28 03:44:24;;;;;;;;;;;;;;;;;;5097865;28;20003;-22
2022/03/28 03:46:50;;;;;;;;;;;;;;;;;;5096818;28;19912;-22
2022/03/28 03:49:16;;;;;;;;;;;;;;;;;;5097774;28;19911;-23
2022/03/28 03:51:42;;;;;;;;;;;;;;;;;;5097962;28;19923;-22
2022/03/28 03:54:08;;;;;;;;;;;;;;;;;;5097967;28;20247;-23
2022/03/28 03:56:34;;;;;;;;;;;;;;;;;;5098184;28;20371;-23
2022/03/28 03:59:00;;;;;;;;;;;;;;;;;;5097686;28;20003;-23
2022/03/28 04:01:26;;;;;;;;;;;;;;;;;;5097810;28;19948;-23
2022/03/28 04:03:52;;;;;;;;;;;;;;;;;;5097622;28;20420;-23
2022/03/28 04:06:18;;;;;;;;;;;;;;;;;;5097557;28;19978;-23
2022/03/28 04:08:44;;;;;;;;;;;;;;;;;;5097442;28;20330;-22
2022/03/28 04:11:10;;;;;;;;;;;;;;;;;;5097596;28;19966;-22
2022/03/28 04:13:36;;;;;;;;;;;;;;;;;;5097285;28;19955;-23
2022/03/28 04:16:02;;;;;;;;;;;;;;;;;;5097078;28;19912;-23
2022/03/28 04:18:28;;;;;;;;;;;;;;;;;;5097070;28;19908;-28
2022/03/28 04:20:54;;;;;;;;;;;;;;;;;;5097399;28;19946;-23
2022/03/28 04:23:20;;;;;;;;;;;;;;;;;;5096997;28;19912;-22
2022/03/28 04:25:46;;;;;;;;;;;;;;;;;;5097344;28;20324;-24
2022/03/28 04:28:12;;;;;;;;;;;;;;;;;;5097074;28;19948;-22
2022/03/28 04:30:38;;;;;;;;;;;;;;;;;;5097036;28;19912;-22
2022/03/28 04:33:04;;;;;;;;;;;;;;;;;;5096982;28;19908;-22
2022/03/28 04:35:30;;;;;;;;;;;;;;;;;;5096850;28;20232;-23
2022/03/28 04:37:56;;;;;;;;;;;;;;;;;;5096756;28;19915;-22
2022/03/28 04:40:22;;;;;;;;;;;;;;;;;;5096714;28;19955;-23
2022/03/28 04:42:48;;;;;;;;;;;;;;;;;;5078791;28;19965;-23
2022/03/28 04:45:14;;;;;;;;;;;;;;;;;;5097035;28;19978;-23
2022/03/28 04:47:40;;;;;;;;;;;;;;;;;;5096609;28;19908;-23
2022/03/28 04:50:06;;;;;;;;;;;;;;;;;;5096805;28;20025;-22
2022/03/28 04:52:32;;;;;;;;;;;;;;;;;;5096639;28;19912;-22
2022/03/28 04:54:58;;;;;;;;;;;;;;;;;;5096418;28;20252;-22
2022/03/28 04:57:24;;;;;;;;;;;;;;;;;;5096508;28;20304;-22
2022/03/28 04:59:50;;;;;;;;;;;;;;;;;;5096229;28;19912;-22
2022/03/28 05:02:16;;;;;;;;;;;;;;;;;;5096627;28;19952;-23
2022/03/28 05:04:42;;;;;;;;;;;;;;;;;;5096105;28;19966;-23
2022/03/28 05:07:09;;;;;;;;;;;;;;;;;;5096014;28;20433;-23
2022/03/28 05:09:35;;;;;;;;;;;;;;;;;;5078244;28;19912;-22
2022/03/28 05:12:01;;;;;;;;;;;;;;;;;;5096202;28;19919;-22
2022/03/28 05:14:27;;;;;;;;;;;;;;;;;;5096435;28;19913;-23
2022/03/28 05:16:53;;;;;;;;;;;;;;;;;;5096532;28;19912;-25
2022/03/28 05:19:19;;;;;;;;;;;;;;;;;;5095967;28;20009;-22
2022/03/28 05:21:45;;;;;;;;;;;;;;;;;;5095880;28;20350;-23
2022/03/28 05:24:11;;;;;;;;;;;;;;;;;;5096246;28;20003;-23
2022/03/28 05:26:37;;;;;;;;;;;;;;;;;;5096513;28;20003;-23
2022/03/28 05:29:03;;;;;;;;;;;;;;;;;;5077914;28;19919;-22
2022/03/28 05:31:29;;;;;;;;;;;;;;;;;;5095694;28;19959;-22
2022/03/28 05:33:55;;;;;;;;;;;;;;;;;;5095516;28;19912;-22
2022/03/28 05:36:21;;;;;;;;;;;;;;;;;;5095994;28;19916;-22
2022/03/28 05:38:47;;;;;;;;;;;;;;;;;;5095959;28;20242;-24
2022/03/28 05:41:13;;;;;;;;;;;;;;;;;;5095908;28;19908;-21
2022/03/28 05:43:39;;;;;;;;;;;;;;;;;;5095518;28;19923;-22
2022/03/28 05:46:05;;;;;;;;;;;;;;;;;;5095806;28;20312;-22
2022/03/28 05:48:31;;;;;;;;;;;;;;;;;;5095699;28;19919;-24
2022/03/28 05:50:57;;;;;;;;;;;;;;;;;;5095459;28;20255;-22
2022/03/28 05:53:23;;;;;;;;;;;;;;;;;;5095797;28;19908;-21
2022/03/28 05:55:49;;;;;;;;;;;;;;;;;;5095325;28;19919;-25
2022/03/28 05:58:15;;;;;;;;;;;;;;;;;;5095052;28;20247;-22
2022/03/28 06:03:23;;;;;;;;;;;;;;;;;;5406784;22;19927;-29
2022/03/28 06:05:49;;;;;;;;;;;;;;;;;;5115604;28;19931;-29
2022/03/28 06:08:15;;;;;;;;;;;;;;;;;;5115742;28;19922;-28
2022/03/28 06:10:41;;;;;;;;;;;;;;;;;;5114944;28;20396;-29
2022/03/28 06:13:08;;;;;;;;;;;;;;;;;;5126754;27;19911;-29
2022/03/28 06:15:36;;;;;;;;;;;;;;;;;;5136087;27;20002;-28
2022/03/28 06:18:03;;;;;;;;;;;;;;;;;;5135852;27;19998;-29
2022/03/28 06:20:29;;;;;;;;;;;;;;;;;;5136195;27;19912;-28
2022/03/28 06:22:55;;;;;;;;;;;;;;;;;;5135770;27;20322;-30
2022/03/28 06:25:22;;;;;;;;;;;;;;;;;;5134837;28;19911;-28
2022/03/28 06:27:48;;;;;;;;;;;;;;;;;;5135785;28;20311;-29
2022/03/28 06:30:14;;;;;;;;;;;;;;;;;;5134911;28;19908;-29
2022/03/28 06:32:43;;;;;;;;;;;;;;;;;;5136023;28;19956;-28
2022/03/28 06:35:09;;;;;;;;;;;;;;;;;;5135824;28;19968;-29
2022/03/28 06:37:35;;;;;;;;;;;;;;;;;;5135678;28;19922;-29
2022/03/28 06:40:03;;;;;;;;;;;;;;;;;;5135644;28;19907;-28
2022/03/28 06:42:29;;;;;;;;;;;;;;;;;;5136083;28;19973;-28
2022/03/28 06:44:55;;;;;;;;;;;;;;;;;;5135502;28;19919;-29
2022/03/28 06:47:21;;;;;;;;;;;;;;;;;;5135634;28;20012;-29
2022/03/28 06:49:47;;;;;;;;;;;;;;;;;;5135559;28;19911;-28
2022/03/28 06:52:13;;;;;;;;;;;;;;;;;;5135735;28;20341;-28
2022/03/28 06:54:39;;;;;;;;;;;;;;;;;;5135752;28;20014;-29
2022/03/28 06:57:05;;;;;;;;;;;;;;;;;;5135467;28;19941;-28
2022/03/28 06:59:31;;;;;;;;;;;;;;;;;;5134417;28;19912;-28
2022/03/28 07:01:57;;;;;;;;;;;;;;;;;;5135388;28;19907;-30
2022/03/28 07:04:24;;;;;;;;;;;;;;;;;;5155773;27;19946;-28
2022/03/28 07:06:50;;;;;;;;;;;;;;;;;;5156170;27;20256;-29
2022/03/28 07:09:16;;;;;;;;;;;;;;;;;;5156313;27;20375;-29
2022/03/28 07:11:43;;;;;;;;;;;;;;;;;;5137607;27;20281;-29
2022/03/28 07:14:09;;;;;;;;;;;;;;;;;;5156348;27;19907;-28
2022/03/28 07:16:35;;;;;;;;;;;;;;;;;;5137897;27;19911;-28
2022/03/28 07:19:01;;;;;;;;;;;;;;;;;;5156413;27;19907;-29
2022/03/28 07:21:27;;;;;;;;;;;;;;;;;;5139139;27;20215;-28
2022/03/28 07:23:53;;;;;;;;;;;;;;;;;;5159798;27;19954;-28
2022/03/28 07:26:20;;;;;;;;;;;;;;;;;;5159779;27;19911;-28
2022/03/28 07:28:46;;;;;;;;;;;;;;;;;;5159598;27;19946;-28
2022/03/28 07:31:12;;;;;;;;;;;;;;;;;;5159717;27;19922;-28
2022/03/28 07:33:38;;;;;;;;;;;;;;;;;;5159514;27;19907;-28
2022/03/28 07:36:04;;;;;;;;;;;;;;;;;;5141248;27;19911;-28
2022/03/28 07:38:30;;;;;;;;;;;;;;;;;;5141173;27;20306;-29
2022/03/28 07:40:56;;;;;;;;;;;;;;;;;;5159474;27;19911;-29
2022/03/28 07:43:22;;;;;;;;;;;;;;;;;;5159372;27;20264;-29
2022/03/28 07:45:53;;;;;;;;;;;;;;;;;;5159679;27;19911;-28
2022/03/28 07:48:19;;;;;;;;;;;;;;;;;;5141233;27;19907;-30
2022/03/28 07:50:46;;;;;;;;;;;;;;;;;;5159373;27;19911;-29
2022/03/28 07:53:12;;;;;;;;;;;;;;;;;;5159185;27;19933;-29
2022/03/28 07:55:39;;;;;;;;;;;;;;;;;;5159300;27;20335;-29
2022/03/28 07:58:06;;;;;;;;;;;;;;;;;;5159525;27;19972;-30
2022/03/28 08:00:32;;;;;;;;;;;;;;;;;;5159233;27;20321;-28
2022/03/28 08:02:58;;;;;;;;;;;;;;;;;;5159020;27;19919;-29
2022/03/28 08:05:24;;;;;;;;;;;;;;;;;;5159293;27;20246;-29
2022/03/28 08:07:50;;;;;;;;;;;;;;;;;;5159384;27;20257;-29
2022/03/28 08:10:16;;;;;;;;;;;;;;;;;;5140591;27;20371;-29
2022/03/28 08:12:43;;;;;;;;;;;;;;;;;;5158709;27;19926;-29
2022/03/28 08:15:09;;;;;;;;;;;;;;;;;;5140584;27;19908;-28
2022/03/28 08:17:35;;;;;;;;;;;;;;;;;;5158713;27;20006;-28
2022/03/28 08:20:01;;;;;;;;;;;;;;;;;;5158979;27;19993;-29
2022/03/28 08:22:27;;;;;;;;;;;;;;;;;;5140221;27;19957;-29
2022/03/28 08:24:53;;;;;;;;;;;;;;;;;;5158847;27;19915;-29
2022/03/28 08:27:19;;;;;;;;;;;;;;;;;;5158652;27;19947;-29
2022/03/28 08:29:45;;;;;;;;;;;;;;;;;;5158379;27;19918;-29
2022/03/28 08:32:11;;;;;;;;;;;;;;;;;;5157993;27;19961;-30
2022/03/28 08:34:37;;;;;;;;;;;;;;;;;;5158359;27;19964;-29
2022/03/28 08:37:03;;;;;;;;;;;;;;;;;;5140147;27;19911;-29
2022/03/28 08:39:30;;;;;;;;;;;;;;;;;;5158530;27;19956;-29
2022/03/28 08:41:56;;;;;;;;;;;;;;;;;;5140175;27;19967;-30
2022/03/28 08:44:23;;;;;;;;;;;;;;;;;;5158322;27;20298;-29
2022/03/28 08:46:49;;;;;;;;;;;;;;;;;;5158317;27;19966;-29
2022/03/28 08:49:15;;;;;;;;;;;;;;;;;;5158627;27;19994;-29
2022/03/28 08:51:41;;;;;;;;;;;;;;;;;;5158233;27;20290;-29
2022/03/28 08:54:07;;;;;;;;;;;;;;;;;;5139915;27;19914;-29
2022/03/28 08:56:33;;;;;;;;;;;;;;;;;;5158142;27;19918;-29
2022/03/28 08:58:59;;;;;;;;;;;;;;;;;;5158161;27;20269;-29
2022/03/28 09:01:25;;;;;;;;;;;;;;;;;;5158247;27;19989;-29
2022/03/28 09:03:51;;;;;;;;;;;;;;;;;;5157599;27;20007;-29
2022/03/28 09:06:17;;;;;;;;;;;;;;;;;;5158062;27;20388;-29
2022/03/28 09:08:43;;;;;;;;;;;;;;;;;;5139648;27;19954;-29
2022/03/28 09:11:09;;;;;;;;;;;;;;;;;;5158165;27;19911;-30
2022/03/28 09:13:35;;;;;;;;;;;;;;;;;;5157713;27;19960;-29
2022/03/28 09:16:07;;;;;;;;;;;;;;;;;;5156844;27;20310;-29
2022/03/28 09:18:34;;;;;;;;;;;;;;;;;;5139445;27;19982;-30
2022/03/28 09:21:00;;;;;;;;;;;;;;;;;;5157568;27;20333;-30
2022/03/28 09:23:26;;;;;;;;;;;;;;;;;;5139472;27;19967;-29
2022/03/28 09:25:52;;;;;;;;;;;;;;;;;;5157744;27;19911;-30
2022/03/28 09:28:18;;;;;;;;;;;;;;;;;;5157325;27;19963;-29
2022/03/28 09:30:44;;;;;;;;;;;;;;;;;;5157433;27;19911;-30
2022/03/28 09:33:10;;;;;;;;;;;;;;;;;;5157223;27;19911;-30
2022/03/28 09:35:36;;;;;;;;;;;;;;;;;;5138807;27;20249;-29
2022/03/28 09:38:02;;;;;;;;;;;;;;;;;;5157355;27;19911;-30
2022/03/28 09:40:28;;;;;;;;;;;;;;;;;;5157182;27;19911;-30
2022/03/28 09:42:55;;;;;;;;;;;;;;;;;;5138684;27;19907;-29
2022/03/28 09:45:21;;;;;;;;;;;;;;;;;;5156248;27;19921;-30
2022/03/28 09:47:47;;;;;;;;;;;;;;;;;;5157297;27;19985;-29
2022/03/28 09:50:13;;;;;;;;;;;;;;;;;;5157279;27;19915;-29
2022/03/28 09:52:39;;;;;;;;;;;;;;;;;;5156888;27;19911;-29
2022/03/28 09:55:05;;;;;;;;;;;;;;;;;;5157162;27;19922;-29
2022/03/28 09:57:31;;;;;;;;;;;;;;;;;;5156854;27;20336;-29
2022/03/28 09:59:58;;;;;;;;;;;;;;;;;;5157159;27;20278;-30
2022/03/28 10:02:24;;;;;;;;;;;;;;;;;;5156723;27;19978;-30
2022/03/28 10:04:50;;;;;;;;;;;;;;;;;;5138548;27;20234;-30
2022/03/28 10:07:16;;;;;;;;;;;;;;;;;;5157053;27;20261;-30
2022/03/28 10:09:42;;;;;;;;;;;;;;;;;;5157027;27;20315;-29
2022/03/28 10:12:08;;;;;;;;;;;;;;;;;;5156977;27;19915;-31
2022/03/28 10:14:34;;;;;;;;;;;;;;;;;;5156701;27;20026;-30
2022/03/28 10:17:00;;;;;;;;;;;;;;;;;;5157011;27;20291;-28
2022/03/28 10:19:26;;;;;;;;;;;;;;;;;;5156626;27;19907;-29
2022/03/28 10:21:51;;;;;;;;;;;;;;;;;;5156593;27;20267;-28
2022/03/28 10:24:18;;;;;;;;;;;;;;;;;;5138089;27;19993;-29
2022/03/28 10:26:44;;;;;;;;;;;;;;;;;;5156502;27;20298;-28
2022/03/28 10:29:10;;;;;;;;;;;;;;;;;;5156863;27;19972;-28
2022/03/28 10:31:36;;;;;;;;;;;;;;;;;;5156583;27;20337;-28
2022/03/28 10:34:03;;;;;;;;;;;;;;;;;;5156459;27;19911;-29
2022/03/28 10:36:29;;;;;;;;;;;;;;;;;;5138950;27;19935;-28
2022/03/28 10:38:57;;;;;;;;;;;;;;;;;;5156404;27;19907;-27
2022/03/28 10:41:23;;;;;;;;;;;;;;;;;;5156578;27;19915;-29
2022/03/28 10:43:49;;;;;;;;;;;;;;;;;;5156401;27;19918;-29
2022/03/28 10:46:15;;;;;;;;;;;;;;;;;;5156385;27;20001;-30
2022/03/28 10:48:41;;;;;;;;;;;;;;;;;;5156252;27;19943;-30
2022/03/28 10:51:07;;;;;;;;;;;;;;;;;;5156363;27;20363;-30
2022/03/28 10:53:37;;;;;;;;;;;;;;;;;;5156170;27;20002;-30
2022/03/28 10:56:03;;;;;;;;;;;;;;;;;;5139523;27;20353;-30
2022/03/28 10:58:29;;;;;;;;;;;;;;;;;;5142197;27;19911;-30
2022/03/28 11:00:55;;;;;;;;;;;;;;;;;;5142071;27;19911;-30
2022/03/28 11:03:21;;;;;;;;;;;;;;;;;;5159968;27;19926;-30
2022/03/28 11:05:47;;;;;;;;;;;;;;;;;;5160581;27;19966;-30
2022/03/28 11:08:13;;;;;;;;;;;;;;;;;;5142185;27;19918;-30
2022/03/28 11:10:39;;;;;;;;;;;;;;;;;;5142070;27;19919;-32
2022/03/28 11:13:05;;;;;;;;;;;;;;;;;;5160149;27;20000;-30
2022/03/28 11:15:31;;;;;;;;;;;;;;;;;;5142009;27;20357;-29
2022/03/28 11:17:57;;;;;;;;;;;;;;;;;;5160133;27;19968;-30
2022/03/28 11:20:23;;;;;;;;;;;;;;;;;;5141741;27;19911;-30
2022/03/28 11:22:49;;;;;;;;;;;;;;;;;;5159830;27;19971;-30
2022/03/28 11:25:16;;;;;;;;;;;;;;;;;;5160076;27;20297;-29
2022/03/28 11:27:42;;;;;;;;;;;;;;;;;;5159742;27;19942;-39
2022/03/28 11:30:12;;;;;;;;;;;;;;;;;;5159833;27;19907;-30
2022/03/28 11:32:38;;;;;;;;;;;;;;;;;;5159599;27;20294;-30
2022/03/28 11:35:04;;;;;;;;;;;;;;;;;;5141506;27;19907;-30
2022/03/28 11:37:30;;;;;;;;;;;;;;;;;;5159715;27;20346;-30
2022/03/28 11:39:56;;;;;;;;;;;;;;;;;;5159715;27;19907;-30
2022/03/28 11:42:22;;;;;;;;;;;;;;;;;;5141098;27;19918;-30
2022/03/28 11:44:48;;;;;;;;;;;;;;;;;;5159767;27;19911;-30
2022/03/28 11:47:17;;;;;;;;;;;;;;;;;;5159525;27;20256;-30
2022/03/28 11:49:43;;;;;;;;;;;;;;;;;;5159604;27;19911;-30
2022/03/28 11:52:09;;;;;;;;;;;;;;;;;;5159373;27;19963;-30
2022/03/28 11:54:35;;;;;;;;;;;;;;;;;;5141058;27;19907;-30
2022/03/28 11:59:45;;;;;;;;;;;;;;;;;;5159300;27;19914;-29
2022/03/28 12:02:12;;;;;;;;;;;;;;;;;;5159137;27;19974;-29
2022/03/28 12:04:37;;;;;;;;;;;;;;;;;;5159370;27;20404;-30
2022/03/28 12:07:03;;;;;;;;;;;;;;;;;;5158372;27;19969;-30
2022/03/28 12:09:29;;;;;;;;;;;;;;;;;;5158817;27;19961;-30
2022/03/28 12:11:55;;;;;;;;;;;;;;;;;;5158806;27;20249;-30
2022/03/28 12:14:22;;;;;;;;;;;;;;;;;;5159107;27;20010;-29
2022/03/28 12:16:48;;;;;;;;;;;;;;;;;;5158919;27;19918;-31
2022/03/28 12:19:14;;;;;;;;;;;;;;;;;;5158936;27;20245;-30
2022/03/28 12:21:40;;;;;;;;;;;;;;;;;;5158890;27;19911;-30
2022/03/28 12:24:06;;;;;;;;;;;;;;;;;;5158668;27;19911;-30
2022/03/28 12:26:32;;;;;;;;;;;;;;;;;;5158702;27;19919;-30
2022/03/28 12:28:59;;;;;;;;;;;;;;;;;;5158748;27;19919;-29
2022/03/28 12:31:24;;;;;;;;;;;;;;;;;;5158493;27;19950;-30
2022/03/28 12:33:52;;;;;;;;;;;;;;;;;;5158749;27;19907;-30
2022/03/28 12:36:24;;;;;;;;;;;;;;;;;;5158891;27;20289;-30
2022/03/28 12:38:52;;;;;;;;;;;;;;;;;;5158666;27;19907;-30
2022/03/28 12:41:18;;;;;;;;;;;;;;;;;;5158374;27;19915;-31
2022/03/28 12:43:44;;;;;;;;;;;;;;;;;;5158301;27;19971;-30
2022/03/28 12:46:10;;;;;;;;;;;;;;;;;;5158326;27;19911;-30
2022/03/28 12:48:36;;;;;;;;;;;;;;;;;;5158212;27;20290;-30
2022/03/28 12:51:03;;;;;;;;;;;;;;;;;;5158141;27;19915;-30
2022/03/28 12:53:29;;;;;;;;;;;;;;;;;;5158065;27;19918;-29
2022/03/28 12:55:55;;;;;;;;;;;;;;;;;;5158089;27;19911;-30
2022/03/28 12:58:21;;;;;;;;;;;;;;;;;;5157977;27;19911;-29
2022/03/28 13:00:47;;;;;;;;;;;;;;;;;;5157968;27;19911;-30
2022/03/28 13:03:14;;;;;;;;;;;;;;;;;;5157813;27;20264;-30
2022/03/28 13:05:40;;;;;;;;;;;;;;;;;;5157679;27;19968;-30
2022/03/28 13:08:06;;;;;;;;;;;;;;;;;;5157635;27;19915;-30
2022/03/28 13:10:32;;;;;;;;;;;;;;;;;;5157524;27;20256;-29
2022/03/28 13:12:58;;;;;;;;;;;;;;;;;;5157618;27;19982;-31
2022/03/28 13:15:27;;;;;;;;;;;;;;;;;;5157569;27;19911;-30
2022/03/28 13:17:53;;;;;;;;;;;;;;;;;;5157808;27;19994;-30
2022/03/28 13:20:19;;;;;;;;;;;;;;;;;;5157745;27;19950;-29
2022/03/28 13:22:50;;;;;;;;;;;;;;;;;;5157393;27;20241;-30
2022/03/28 13:25:17;;;;;;;;;;;;;;;;;;5157667;27;19978;-30
2022/03/28 13:28:01;;;;;;;;;;;;;;;;;;5157465;27;20410;-30
2022/03/28 13:30:28;;;;;;;;;;;;;;;;;;5139288;27;20002;-30
2022/03/28 13:32:54;;;;;;;;;;;;;;;;;;5157401;27;19974;-29
2022/03/28 13:35:20;;;;;;;;;;;;;;;;;;5157406;27;19915;-29
2022/03/28 13:37:46;;;;;;;;;;;;;;;;;;5157390;27;19994;-29
2022/03/28 13:40:12;;;;;;;;;;;;;;;;;;5157574;27;19990;-29
2022/03/28 13:42:38;;;;;;;;;;;;;;;;;;5157449;27;19915;-29
2022/03/28 13:45:04;;;;;;;;;;;;;;;;;;5157314;27;19919;-29
2022/03/28 13:47:30;;;;;;;;;;;;;;;;;;5157009;27;19908;-30
2022/03/28 13:49:56;;;;;;;;;;;;;;;;;;5157270;27;19911;-29
2022/03/28 13:52:22;;;;;;;;;;;;;;;;;;5157002;27;19915;-29
2022/03/28 13:54:48;;;;;;;;;;;;;;;;;;5157188;27;19965;-29
2022/03/28 13:57:14;;;;;;;;;;;;;;;;;;5157052;27;20015;-30
2022/03/28 13:59:40;;;;;;;;;;;;;;;;;;5157301;27;19911;-29
2022/03/28 14:02:07;;;;;;;;;;;;;;;;;;5156598;27;20070;-29
2022/03/28 14:04:33;;;;;;;;;;;;;;;;;;5138520;27;19930;-29
2022/03/28 14:06:59;;;;;;;;;;;;;;;;;;5156784;27;19915;-29
2022/03/28 14:09:25;;;;;;;;;;;;;;;;;;5156758;27;19914;-29
2022/03/28 14:11:51;;;;;;;;;;;;;;;;;;5156720;27;19922;-30
2022/03/28 14:14:17;;;;;;;;;;;;;;;;;;5156651;27;19991;-29
2022/03/28 14:16:43;;;;;;;;;;;;;;;;;;5156921;27;20356;-29
2022/03/28 14:19:11;;;;;;;;;;;;;;;;;;5156910;27;19919;-30
2022/03/28 14:21:37;;;;;;;;;;;;;;;;;;5138334;27;19914;-30
2022/03/28 14:24:03;;;;;;;;;;;;;;;;;;5138078;27;20393;-29
2022/03/28 14:26:30;;;;;;;;;;;;;;;;;;5156527;27;20001;-29
2022/03/28 14:28:55;;;;;;;;;;;;;;;;;;5156693;27;19911;-29
2022/03/28 14:31:21;;;;;;;;;;;;;;;;;;5160737;27;20303;-29
2022/03/28 14:33:47;;;;;;;;;;;;;;;;;;5163496;27;19907;-28
2022/03/28 14:36:13;;;;;;;;;;;;;;;;;;5163478;27;19939;-29
2022/03/28 14:38:40;;;;;;;;;;;;;;;;;;5145368;27;19907;-29
2022/03/28 14:41:06;;;;;;;;;;;;;;;;;;5145119;27;19911;-30
2022/03/28 14:43:32;;;;;;;;;;;;;;;;;;5163496;27;19907;-28
2022/03/28 14:48:42;;;;;;;;;;;;;;;;;;5163801;27;19938;-30
2022/03/28 14:51:09;;;;;;;;;;;;;;;;;;5163641;27;19911;-29
2022/03/28 14:53:35;;;;;;;;;;;;;;;;;;5163386;27;19911;-30
2022/03/28 14:56:01;;;;;;;;;;;;;;;;;;5163246;27;19922;-30
2022/03/28 14:58:27;;;;;;;;;;;;;;;;;;5163562;27;19914;-29
2022/03/28 15:00:53;;;;;;;;;;;;;;;;;;5163279;27;19915;-29
2022/03/28 15:03:19;;;;;;;;;;;;;;;;;;5163021;27;19919;-30
2022/03/28 15:05:45;;;;;;;;;;;;;;;;;;5163057;27;20345;-30
2022/03/28 15:08:12;;;;;;;;;;;;;;;;;;5163076;27;20068;-29
2022/03/28 15:10:38;;;;;;;;;;;;;;;;;;5163154;27;19940;-30
2022/03/28 15:13:04;;;;;;;;;;;;;;;;;;5163148;27;19907;-29
2022/03/28 15:15:30;;;;;;;;;;;;;;;;;;5163218;27;19915;-29
2022/03/28 15:17:57;;;;;;;;;;;;;;;;;;5163063;27;20006;-29
2022/03/28 15:20:23;;;;;;;;;;;;;;;;;;5144861;27;19915;-30
2022/03/28 15:22:50;;;;;;;;;;;;;;;;;;5162931;27;19911;-29
2022/03/28 15:25:16;;;;;;;;;;;;;;;;;;5144803;27;20269;-30
2022/03/28 15:27:43;;;;;;;;;;;;;;;;;;5163108;27;20319;-29
2022/03/28 15:30:08;;;;;;;;;;;;;;;;;;5163321;27;19911;-29
2022/03/28 15:32:34;;;;;;;;;;;;;;;;;;5144608;27;20332;-29
2022/03/28 15:35:00;;;;;;;;;;;;;;;;;;5163172;27;20304;-30
2022/03/28 15:37:26;;;;;;;;;;;;;;;;;;5163336;27;20279;-30
2022/03/28 15:39:52;;;;;;;;;;;;;;;;;;5163587;27;19911;-29
2022/03/28 15:42:18;;;;;;;;;;;;;;;;;;5141820;27;19975;-30
2022/03/28 15:44:44;;;;;;;;;;;;;;;;;;5159637;27;19961;-30
2022/03/28 15:47:10;;;;;;;;;;;;;;;;;;5159606;27;19907;-30
2022/03/28 15:49:36;;;;;;;;;;;;;;;;;;5141366;27;19918;-28
2022/03/28 15:52:02;;;;;;;;;;;;;;;;;;5159373;27;19911;-29
2022/03/28 15:54:28;;;;;;;;;;;;;;;;;;5141233;27;20309;-29
2022/03/28 15:56:54;;;;;;;;;;;;;;;;;;5159513;27;19911;-30
2022/03/28 15:59:20;;;;;;;;;;;;;;;;;;5160307;27;19967;-29
2022/03/28 16:01:50;;;;;;;;;;;;;;;;;;5159528;27;19918;-30
2022/03/28 16:04:16;;;;;;;;;;;;;;;;;;5158886;27;19919;-29
2022/03/28 16:06:42;;;;;;;;;;;;;;;;;;5159181;27;19911;-34
2022/03/28 16:09:08;;;;;;;;;;;;;;;;;;5159506;27;19911;-30
2022/03/28 16:11:34;;;;;;;;;;;;;;;;;;5159097;27;19918;-30
2022/03/28 16:14:00;;;;;;;;;;;;;;;;;;5159102;27;20218;-29
2022/03/28 16:16:26;;;;;;;;;;;;;;;;;;5159426;27;20333;-30
2022/03/28 16:18:52;;;;;;;;;;;;;;;;;;5159025;27;19917;-30
2022/03/28 16:21:18;;;;;;;;;;;;;;;;;;5158716;27;19962;-30
2022/03/28 16:23:44;;;;;;;;;;;;;;;;;;5158612;27;19907;-30
2022/03/28 16:26:10;;;;;;;;;;;;;;;;;;5158825;27;19911;-30
2022/03/28 16:28:36;;;;;;;;;;;;;;;;;;5159123;27;20303;-29
2022/03/28 16:31:02;;;;;;;;;;;;;;;;;;5158747;27;20039;-30
2022/03/28 16:33:28;;;;;;;;;;;;;;;;;;5158713;27;20357;-29
2022/03/28 16:35:54;;;;;;;;;;;;;;;;;;5158730;27;19911;-30
2022/03/28 16:38:20;;;;;;;;;;;;;;;;;;5140335;27;20037;-29
2022/03/28 16:40:46;;;;;;;;;;;;;;;;;;5158381;27;20227;-39
2022/03/28 16:43:13;;;;;;;;;;;;;;;;;;5158275;27;19918;-30
2022/03/28 16:45:39;;;;;;;;;;;;;;;;;;5158596;27;20370;-29